Time;durP1;ratioP1;P1;durP2;ratioP2;P2;SDS_P1;SDS_P2;PMS_P1;PMS_P2;Temp;Humidity;BMP_temperature;BMP_pressure;BME280_temperature;BME280_humidity;BME280_pressure;Samples;Min_cycle;Max_cycle;Signal;HPM_P1;HPM_P2
2023/06/07 00:00:23;;;;;;;4.30;2.90;;;;;;;17.46;60.36;99956.38;1087771;39;20794;-85
2023/06/07 00:01:25;;;;;;;4.20;2.75;;;;;;;17.55;60.06;99948.97;1087284;47;20030;-84
2023/06/07 00:02:30;;;;;;;4.90;2.88;;;;;;;17.46;60.38;99949.09;1087253;54;20027;-84
2023/06/07 00:03:31;;;;;;;5.18;3.10;;;;;;;17.48;60.44;99946.19;1087285;46;20035;-83
2023/06/07 00:04:35;;;;;;;5.63;3.25;;;;;;;17.41;60.68;99954.25;1087339;54;20040;-86
2023/06/07 00:05:38;;;;;;;4.60;2.80;;;;;;;17.45;60.51;99949.31;1088080;54;20033;-84
2023/06/07 00:06:42;;;;;;;4.82;2.72;;;;;;;17.48;60.44;99954.31;1088109;54;20034;-86
2023/06/07 00:07:43;;;;;;;6.68;2.83;;;;;;;17.45;60.72;99952.84;1088408;54;20027;-83
2023/06/07 00:08:47;;;;;;;6.03;2.80;;;;;;;17.46;60.66;99946.41;1088229;54;20035;-84
2023/06/07 00:09:49;;;;;;;4.25;2.88;;;;;;;17.39;60.68;99947.34;1090881;39;20353;-82
2023/06/07 00:10:53;;;;;;;5.55;2.72;;;;;;;17.33;60.92;99946.28;1086710;47;20033;-84
2023/06/07 00:11:55;;;;;;;4.50;2.47;;;;;;;17.30;60.99;99947.47;1087029;54;20019;-82
2023/06/07 00:12:58;;;;;;;4.35;2.72;;;;;;;17.30;61.28;99946.66;1087184;54;20046;-85
2023/06/07 00:14:02;;;;;;;4.88;2.67;;;;;;;17.34;61.01;99947.09;1086806;47;20094;-83
2023/06/07 00:15:07;;;;;;;5.38;2.97;;;;;;;17.25;61.15;99939.13;1087146;54;20038;-84
2023/06/07 00:16:08;;;;;;;3.97;2.63;;;;;;;17.18;61.72;99946.31;1087541;54;20090;-85
2023/06/07 00:17:12;;;;;;;5.10;2.83;;;;;;;17.19;61.84;99941.75;1087125;54;20026;-84
2023/06/07 00:18:15;;;;;;;5.15;3.22;;;;;;;17.20;61.56;99940.72;1086970;47;20046;-85
2023/06/07 00:19:21;;;;;;;4.38;2.60;;;;;;;17.20;61.49;99940.72;1087246;47;20030;-87
2023/06/07 00:20:22;;;;;;;4.72;3.03;;;;;;;17.23;61.44;99933.06;1087004;47;20030;-85
2023/06/07 00:21:27;;;;;;;3.72;2.45;;;;;;;17.24;61.67;99934.75;1087041;47;20129;-85
2023/06/07 00:22:33;;;;;;;4.55;2.78;;;;;;;17.25;61.41;99936.41;1087187;54;20041;-85
2023/06/07 00:23:38;;;;;;;4.75;2.92;;;;;;;17.25;61.65;99941.81;1087189;54;20026;-82
2023/06/07 00:24:39;;;;;;;4.15;2.53;;;;;;;17.19;61.88;99941.75;1087389;47;20034;-85
2023/06/07 00:25:45;;;;;;;4.18;2.50;;;;;;;17.22;61.42;99936.78;1087902;46;20027;-86
2023/06/07 00:26:47;;;;;;;6.20;3.10;;;;;;;17.12;62.15;99934.41;1087943;46;20050;-85
2023/06/07 00:27:51;;;;;;;5.15;2.40;;;;;;;17.19;61.79;99939.03;1087804;47;20015;-84
2023/06/07 00:28:53;;;;;;;4.43;2.75;;;;;;;17.14;62.10;99943.13;1087509;47;20054;-85
2023/06/07 00:29:59;;;;;;;5.03;2.83;;;;;;;17.16;61.94;99937.56;1087740;54;20026;-83
2023/06/07 00:31:00;;;;;;;4.28;2.20;;;;;;;17.18;61.75;99931.97;1087406;54;20026;-84
2023/06/07 00:32:04;;;;;;;6.20;2.88;;;;;;;17.28;61.28;99933.34;1087506;54;20030;-88
2023/06/07 00:33:05;;;;;;;4.00;2.50;;;;;;;17.31;61.26;99932.94;1087504;46;20014;-85
2023/06/07 00:34:09;;;;;;;4.45;2.70;;;;;;;17.29;61.33;99929.59;1087554;47;20051;-83
2023/06/07 00:35:12;;;;;;;5.10;3.00;;;;;;;17.32;61.11;99936.50;1087795;47;20034;-86
2023/06/07 00:36:16;;;;;;;4.93;2.85;;;;;;;17.36;61.17;99934.25;1087650;47;20063;-86
2023/06/07 00:37:17;;;;;;;5.32;2.60;;;;;;;17.40;60.82;99935.53;1087641;47;20026;-84
2023/06/07 00:38:21;;;;;;;4.53;2.80;;;;;;;17.38;60.94;99932.19;1087459;47;20270;-84
2023/06/07 00:39:24;;;;;;;4.20;2.53;;;;;;;17.31;61.11;99934.81;1087708;47;20018;-84
2023/06/07 00:40:28;;;;;;;4.82;2.40;;;;;;;17.27;61.55;99934.38;1091932;39;21015;-85
2023/06/07 00:42:41;;;;;;;4.53;2.70;;;;;;;17.29;61.13;99929.59;1087990;54;20030;-84
2023/06/07 00:45:03;;;;;;;4.78;3.05;;;;;;;17.22;61.60;99927.88;1088517;54;20066;-86
2023/06/07 00:46:05;;;;;;;4.15;2.40;;;;;;;17.30;61.52;99930.44;1088014;47;20805;-86
2023/06/07 00:47:09;;;;;;;4.90;2.60;;;;;;;17.33;61.46;99929.22;1081367;46;20044;-85
2023/06/07 00:48:12;;;;;;;3.90;2.25;;;;;;;17.32;61.25;99933.78;1087681;47;20022;-85
2023/06/07 00:49:19;;;;;;;4.75;3.13;;;;;;;17.23;61.72;99926.84;1087874;46;20022;-85
2023/06/07 00:50:20;;;;;;;4.28;2.78;;;;;;;17.22;61.56;99926.00;1087872;47;20647;-84
2023/06/07 00:51:25;;;;;;;4.63;3.08;;;;;;;17.19;61.52;99922.84;1088143;47;20030;-84
2023/06/07 00:52:26;;;;;;;3.80;2.40;;;;;;;17.18;61.81;99926.56;1088121;47;20023;-87
2023/06/07 00:54:32;;;;;;;4.50;2.83;;;;;;;17.18;62.07;99922.00;1088326;54;20031;-86
2023/06/07 00:55:34;;;;;;;4.25;2.72;;;;;;;17.12;61.99;99928.16;1088427;47;20014;-83
2023/06/07 00:56:38;;;;;;;4.13;2.30;;;;;;;17.21;61.65;99927.00;1087908;54;20034;-85
2023/06/07 00:57:40;;;;;;;5.55;2.65;;;;;;;17.13;62.04;99929.84;1087903;47;20090;-84
2023/06/07 00:58:45;;;;;;;4.30;2.40;;;;;;;17.13;62.24;99925.28;1087740;47;20030;-86
2023/06/07 00:59:47;;;;;;;4.15;2.47;;;;;;;17.14;61.98;99921.53;1088157;46;20026;-85
2023/06/07 01:00:53;;;;;;;4.50;2.83;;;;;;;17.08;62.62;99926.88;1087906;46;20090;-84
2023/06/07 01:01:55;;;;;;;4.30;2.22;;;;;;;17.08;62.39;99932.28;1087904;47;20051;-87
2023/06/07 01:02:59;;;;;;;4.15;2.47;;;;;;;17.15;62.05;99930.50;1087682;51;20436;-85
2023/06/07 01:04:00;;;;;;;5.25;2.38;;;;;;;17.22;61.85;99927.88;1087789;47;20047;-85
2023/06/07 01:05:06;;;;;;;3.65;2.13;;;;;;;17.21;61.83;99927.00;1087714;47;20031;-85
2023/06/07 01:06:08;;;;;;;5.15;2.50;;;;;;;17.05;62.47;99933.47;1087694;47;20034;-85
2023/06/07 01:07:12;;;;;;;4.30;2.47;;;;;;;17.14;61.96;99928.81;1087523;54;20022;-86
2023/06/07 01:08:15;;;;;;;4.25;2.38;;;;;;;17.02;62.35;99933.03;1087719;47;20011;-86
2023/06/07 01:09:21;;;;;;;4.65;2.42;;;;;;;17.09;62.33;99931.25;1088026;47;20027;-86
2023/06/07 01:10:23;;;;;;;4.10;2.45;;;;;;;17.04;62.43;99931.84;1088068;47;20055;-84
2023/06/07 01:12:35;;;;;;;3.90;2.30;;;;;;;17.13;61.96;99921.72;1088486;54;20022;-85
2023/06/07 01:13:38;;;;;;;4.78;2.80;;;;;;;17.09;62.33;99926.69;1087930;39;20563;-84
2023/06/07 01:14:43;;;;;;;4.65;2.83;;;;;;;16.98;62.73;99925.31;1087299;47;20034;-84
2023/06/07 01:15:44;;;;;;;4.28;2.53;;;;;;;17.04;62.67;99930.97;1087272;54;20031;-85
2023/06/07 01:16:56;;;;;;;3.72;2.15;;;;;;;17.11;62.26;99924.63;1087558;54;20035;-85
2023/06/07 01:17:59;;;;;;;3.55;2.05;;;;;;;17.20;62.06;99924.50;1087315;47;20623;-86
2023/06/07 01:19:03;;;;;;;4.03;2.20;;;;;;;17.23;61.71;99924.13;1086954;47;20027;-84
2023/06/07 01:20:06;;;;;;;4.78;2.67;;;;;;;17.19;62.09;99925.53;1087403;47;20023;-86
2023/06/07 01:21:14;;;;;;;4.20;2.03;;;;;;;17.23;62.07;99919.56;1087080;47;21027;-83
2023/06/07 01:22:15;;;;;;;4.00;2.38;;;;;;;17.25;61.93;99931.03;1087320;47;20064;-85
2023/06/07 01:23:28;;;;;;;4.10;2.55;;;;;;;17.23;61.81;99930.38;1087648;47;20030;-84
2023/06/07 01:24:32;;;;;;;3.90;2.42;;;;;;;17.20;62.06;99935.31;1087655;47;20026;-82
2023/06/07 01:25:35;;;;;;;4.53;2.65;;;;;;;17.14;62.33;99934.22;1087462;47;20026;-85
2023/06/07 01:26:37;;;;;;;4.30;2.60;;;;;;;17.21;62.03;99931.59;1087470;47;20026;-84
2023/06/07 01:27:44;;;;;;;4.43;2.40;;;;;;;17.19;62.05;99929.09;1087653;54;20035;-84
2023/06/07 01:28:49;;;;;;;3.72;2.30;;;;;;;17.07;62.23;99931.44;1090608;39;20552;-85
2023/06/07 01:29:53;;;;;;;4.40;2.92;;;;;;;16.96;62.75;99930.06;1087385;47;20039;-85
2023/06/07 01:30:55;;;;;;;7.78;4.95;;;;;;;16.90;62.72;99933.50;1087790;54;20037;-85
2023/06/07 01:32:01;;;;;;;5.53;4.10;;;;;;;16.76;63.28;99929.81;1087878;47;20031;-85
2023/06/07 01:33:05;;;;;;;6.38;3.88;;;;;;;16.62;63.71;99931.50;1087718;47;20023;-84
2023/06/07 01:34:10;;;;;;;5.88;3.88;;;;;;;16.63;63.80;99930.44;1087748;46;20042;-85
2023/06/07 01:35:13;;;;;;;5.20;3.20;;;;;;;16.55;64.06;99937.81;1087750;47;20843;-86
2023/06/07 01:36:17;;;;;;;6.60;3.88;;;;;;;16.54;64.22;99926.16;1087762;47;20030;-86
2023/06/07 01:37:21;;;;;;;5.47;3.35;;;;;;;16.49;64.28;99929.44;1088123;47;20098;-87
2023/06/07 01:38:28;;;;;;;5.00;3.15;;;;;;;16.50;64.00;99941.91;1088006;54;20099;-85
2023/06/07 01:39:33;;;;;;;5.65;3.22;;;;;;;16.49;64.24;99925.91;1087744;54;20023;-85
2023/06/07 01:40:38;;;;;;;6.35;3.33;;;;;;;16.46;64.35;99923.56;1087613;54;20060;-87
2023/06/07 01:41:41;;;;;;;6.30;4.18;;;;;;;16.46;64.32;99931.66;1087302;47;20082;-85
2023/06/07 01:42:46;;;;;;;7.70;5.50;;;;;;;16.47;64.35;99925.25;1087266;47;20082;-84
2023/06/07 01:43:48;;;;;;;10.13;7.28;;;;;;;16.38;64.86;99930.75;1087325;47;20094;-85
2023/06/07 01:44:54;;;;;;;7.05;4.60;;;;;;;16.38;64.66;99933.44;1087344;47;20053;-86
2023/06/07 01:45:57;;;;;;;5.93;4.28;;;;;;;16.36;64.92;99935.47;1087289;47;20026;-85
2023/06/07 01:47:03;;;;;;;10.50;6.75;;;;;;;16.42;64.33;99927.69;1087777;47;20023;-85
2023/06/07 01:48:05;;;;;;;12.68;10.38;;;;;;;16.43;64.55;99924.78;1087597;47;20038;-85
2023/06/07 01:49:09;;;;;;;15.82;13.10;;;;;;;16.40;64.69;99932.41;1087539;47;20027;-85
2023/06/07 01:50:10;;;;;;;11.65;9.63;;;;;;;16.47;64.46;99926.09;1087163;54;20030;-82
2023/06/07 01:51:15;;;;;;;11.38;7.95;;;;;;;16.45;64.24;99924.59;1087171;47;20026;-85
2023/06/07 01:52:16;;;;;;;9.68;5.40;;;;;;;16.43;64.30;99929.34;1087257;47;20023;-86
2023/06/07 01:53:20;;;;;;;7.25;4.97;;;;;;;16.44;64.48;99928.31;1089067;39;20723;-84
2023/06/07 01:54:21;;;;;;;7.07;4.28;;;;;;;16.43;64.46;99929.34;1087338;47;20154;-86
2023/06/07 01:55:30;;;;;;;6.22;3.47;;;;;;;16.43;64.63;99922.09;1087288;54;20141;-86
2023/06/07 01:56:40;;;;;;;5.45;3.53;;;;;;;16.40;64.54;99927.84;1087334;47;20022;-84
2023/06/07 01:57:53;;;;;;;5.60;3.20;;;;;;;16.29;64.98;99929.16;1087045;47;20045;-83
2023/06/07 01:59:03;;;;;;;4.35;2.78;;;;;;;16.35;64.89;99928.41;1087244;47;20018;-83
2023/06/07 02:00:15;;;;;;;5.18;3.13;;;;;;;16.32;65.01;99939.59;1087234;47;20461;-84
2023/06/07 02:01:26;;;;;;;5.68;3.20;;;;;;;16.30;65.02;99925.44;1087335;47;20022;-84
2023/06/07 02:02:37;;;;;;;10.13;4.07;;;;;;;16.23;65.45;99935.31;1087191;47;20026;-86
2023/06/07 02:03:41;;;;;;;4.80;2.88;;;;;;;16.25;65.39;99922.44;1087547;54;20109;-86
2023/06/07 02:04:48;;;;;;;4.70;3.03;;;;;;;16.26;65.28;99926.81;1087093;47;20022;-85
2023/06/07 02:05:54;;;;;;;11.10;8.43;;;;;;;16.23;65.09;99927.22;1087049;47;20123;-84
2023/06/07 02:07:03;;;;;;;7.95;6.13;;;;;;;16.31;65.27;99927.13;1086766;47;21052;-83
2023/06/07 02:08:13;;;;;;;7.03;5.18;;;;;;;16.37;64.55;99929.06;1086997;47;20026;-84
2023/06/07 02:09:18;;;;;;;8.43;5.10;;;;;;;16.45;64.63;99932.69;1087034;47;20038;-83
2023/06/07 02:10:23;;;;;;;6.53;4.93;;;;;;;16.52;64.24;99931.75;1086673;54;20077;-86
2023/06/07 02:11:31;;;;;;;7.00;4.50;;;;;;;16.56;64.13;99921.44;1089863;39;20801;-83
2023/06/07 02:12:34;;;;;;;5.38;3.67;;;;;;;16.53;64.03;99929.91;1086642;47;20050;-81
2023/06/07 02:13:41;;;;;;;5.15;3.40;;;;;;;16.51;64.22;99927.38;1086495;54;20045;-82
2023/06/07 02:14:42;;;;;;;5.05;3.40;;;;;;;16.42;64.57;99930.38;1086479;54;20042;-81
2023/06/07 02:15:47;;;;;;;4.95;3.15;;;;;;;16.38;64.68;99919.94;1086426;47;20157;-84
2023/06/07 02:16:48;;;;;;;7.18;3.58;;;;;;;16.32;65.11;99936.03;1086447;47;20035;-82
2023/06/07 02:17:57;;;;;;;6.13;3.42;;;;;;;16.33;64.98;99935.00;1086770;54;20057;-82
2023/06/07 02:18:58;;;;;;;7.20;3.08;;;;;;;16.28;65.26;99932.88;1087002;47;20086;-84
2023/06/07 02:20:03;;;;;;;4.20;2.90;;;;;;;16.28;65.03;99932.88;1087417;39;20538;-83
2023/06/07 02:21:04;;;;;;;4.68;2.97;;;;;;;16.33;64.94;99933.16;1086982;54;20070;-83
2023/06/07 02:22:08;;;;;;;4.15;2.70;;;;;;;16.36;65.05;99932.78;1086576;47;20026;-83
2023/06/07 02:23:09;;;;;;;4.47;2.60;;;;;;;16.42;64.79;99927.69;1087116;54;20052;-83
2023/06/07 02:24:13;;;;;;;4.50;2.70;;;;;;;16.46;64.69;99927.13;1087119;54;20031;-82
2023/06/07 02:25:14;;;;;;;4.10;2.60;;;;;;;16.49;64.65;99929.44;1086976;47;20030;-82
2023/06/07 02:26:20;;;;;;;3.50;2.10;;;;;;;16.50;64.83;99930.28;1086934;54;20042;-83
2023/06/07 02:27:24;;;;;;;4.60;2.40;;;;;;;16.52;64.71;99930.94;1087220;54;20034;-84
2023/06/07 02:28:28;;;;;;;4.47;2.40;;;;;;;16.52;64.53;99928.25;1087363;54;20027;-81
2023/06/07 02:29:29;;;;;;;4.80;2.75;;;;;;;16.50;64.54;99930.28;1087211;54;20035;-84
2023/06/07 02:30:33;;;;;;;4.13;2.50;;;;;;;16.49;64.54;99932.13;1087214;47;20042;-84
2023/06/07 02:31:34;;;;;;;4.32;2.33;;;;;;;16.51;64.82;99931.97;1087465;54;20034;-84
2023/06/07 02:32:39;;;;;;;4.45;2.30;;;;;;;16.48;64.51;99933.16;1087565;54;20054;-84
2023/06/07 02:33:41;;;;;;;4.15;2.13;;;;;;;16.49;64.82;99928.59;1087528;47;20034;-84
2023/06/07 02:34:45;;;;;;;4.72;2.42;;;;;;;16.44;64.85;99931.00;1087810;39;20425;-84
2023/06/07 02:35:49;;;;;;;5.18;2.90;;;;;;;16.34;65.31;99929.41;1087507;54;20082;-85
2023/06/07 02:36:51;;;;;;;4.53;2.70;;;;;;;16.32;65.53;99933.34;1087532;54;20137;-84
2023/06/07 02:37:55;;;;;;;5.57;3.30;;;;;;;16.30;65.29;99925.44;1087747;54;20065;-85
2023/06/07 02:38:57;;;;;;;4.65;2.72;;;;;;;16.28;65.39;99921.25;1087652;54;20030;-82
2023/06/07 02:40:02;;;;;;;7.68;3.22;;;;;;;16.23;65.68;99919.13;1087695;39;20672;-82
2023/06/07 02:41:04;;;;;;;4.28;2.53;;;;;;;16.29;65.43;99922.94;1087351;47;20030;-83
2023/06/07 02:42:09;;;;;;;5.10;2.92;;;;;;;16.26;65.80;99924.13;1087245;54;20038;-82
2023/06/07 02:43:14;;;;;;;4.85;2.90;;;;;;;16.22;65.78;99923.66;1087504;46;20037;-82
2023/06/07 02:44:17;;;;;;;5.53;2.72;;;;;;;16.29;65.67;99923.75;1087369;54;20050;-84
2023/06/07 02:45:18;;;;;;;4.22;2.90;;;;;;;16.18;66.06;99922.38;1087381;47;20068;-83
2023/06/07 02:46:22;;;;;;;5.88;3.28;;;;;;;16.16;65.80;99918.16;1087086;47;20042;-83
2023/06/07 02:47:24;;;;;;;4.57;2.88;;;;;;;16.22;65.94;99923.66;1087208;46;20039;-84
2023/06/07 02:48:28;;;;;;;4.95;2.90;;;;;;;16.29;65.52;99923.75;1087212;47;20073;-82
2023/06/07 02:49:29;;;;;;;5.88;3.05;;;;;;;16.30;65.72;99924.59;1087260;47;20031;-83
2023/06/07 02:50:33;;;;;;;4.82;2.65;;;;;;;16.33;65.27;99924.22;1087160;47;20034;-83
2023/06/07 02:51:37;;;;;;;5.38;3.10;;;;;;;16.28;65.69;99914.00;1088067;47;20023;-86
2023/06/07 02:52:41;;;;;;;4.15;2.53;;;;;;;16.27;65.66;99924.97;1087872;47;20037;-84
2023/06/07 02:53:45;;;;;;;4.82;2.80;;;;;;;16.23;65.65;99919.13;1087682;46;20026;-84
2023/06/07 02:54:49;;;;;;;5.75;2.90;;;;;;;16.25;65.75;99924.31;1087832;47;20030;-85
2023/06/07 02:55:51;;;;;;;4.40;2.80;;;;;;;16.29;65.41;99921.06;1088053;54;20038;-85
2023/06/07 02:56:55;;;;;;;4.43;2.65;;;;;;;16.28;65.74;99921.25;1087949;47;20094;-85
2023/06/07 02:57:56;;;;;;;4.85;2.50;;;;;;;16.29;65.67;99926.47;1087885;47;20035;-85
2023/06/07 02:59:07;;;;;;;4.28;2.53;;;;;;;16.33;65.27;99929.63;1089921;39;20699;-84
2023/06/07 03:00:14;;;;;;;5.25;2.83;;;;;;;16.28;65.34;99922.09;1088061;46;20030;-85
2023/06/07 03:01:44;;;;;;;4.63;2.40;;;;;;;16.28;65.52;99930.19;1087832;54;20072;-85
2023/06/07 03:02:46;;;;;;;4.50;2.85;;;;;;;16.29;65.23;99929.16;1087907;47;20093;-84
2023/06/07 03:03:50;;;;;;;4.30;2.40;;;;;;;16.27;65.41;99925.78;1087989;47;20031;-87
2023/06/07 03:04:52;;;;;;;5.25;2.30;;;;;;;16.27;65.57;99925.78;1087834;47;20048;-85
2023/06/07 03:05:59;;;;;;;4.43;2.40;;;;;;;16.27;65.66;99930.38;1088039;47;20030;-85
2023/06/07 03:07:04;;;;;;;4.18;2.58;;;;;;;16.20;65.71;99927.56;1087974;47;20034;-87
2023/06/07 03:08:17;;;;;;;4.35;2.75;;;;;;;16.19;65.71;99928.59;1088131;46;20026;-85
2023/06/07 03:09:20;;;;;;;3.95;2.33;;;;;;;16.19;65.77;99925.88;1087910;47;20035;-85
2023/06/07 03:10:24;;;;;;;4.32;2.50;;;;;;;16.17;65.79;99938.72;1087951;47;20046;-85
2023/06/07 03:11:26;;;;;;;3.75;2.13;;;;;;;16.16;65.73;99935.19;1089188;39;20310;-85
2023/06/07 03:12:32;;;;;;;5.75;2.90;;;;;;;16.16;65.92;99935.19;1087876;46;20030;-87
2023/06/07 03:13:34;;;;;;;5.57;3.17;;;;;;;16.17;65.87;99931.47;1087968;47;20057;-84
2023/06/07 03:14:43;;;;;;;4.45;3.08;;;;;;;16.18;65.73;99930.47;1088116;46;20018;-85
2023/06/07 03:15:50;;;;;;;4.47;2.47;;;;;;;16.22;65.74;99929.06;1088079;47;20026;-87
2023/06/07 03:16:53;;;;;;;3.53;2.00;;;;;;;16.24;65.76;99933.44;1087977;46;20141;-86
2023/06/07 03:17:57;;;;;;;3.75;2.30;;;;;;;16.21;65.73;99937.34;1087726;47;20049;-85
2023/06/07 03:18:59;;;;;;;5.85;2.80;;;;;;;16.14;66.06;99931.84;1087682;47;20082;-85
2023/06/07 03:20:06;;;;;;;4.57;2.75;;;;;;;16.07;66.08;99936.28;1087859;47;20045;-85
2023/06/07 03:21:08;;;;;;;5.68;3.67;;;;;;;15.98;66.26;99927.44;1087838;47;20030;-85
2023/06/07 03:22:12;;;;;;;4.88;3.60;;;;;;;15.87;66.90;99936.00;1087653;47;20060;-85
2023/06/07 03:23:15;;;;;;;5.57;4.00;;;;;;;15.91;66.66;99929.19;1090814;39;20243;-85
2023/06/07 03:24:24;;;;;;;4.45;2.92;;;;;;;15.97;66.47;99936.53;1087831;47;20042;-84
2023/06/07 03:25:26;;;;;;;5.53;3.50;;;;;;;15.97;66.50;99928.44;1087608;47;20757;-84
2023/06/07 03:26:31;;;;;;;5.65;3.60;;;;;;;15.97;66.29;99931.16;1087655;47;20022;-84
2023/06/07 03:27:34;;;;;;;5.47;3.60;;;;;;;15.94;66.54;99934.22;1087766;47;20059;-85
2023/06/07 03:28:48;;;;;;;5.82;3.65;;;;;;;15.89;66.76;99934.78;1087540;47;20030;-85
2023/06/07 03:29:53;;;;;;;5.00;3.60;;;;;;;15.85;67.06;99938.84;1087754;47;20015;-84
2023/06/07 03:30:59;;;;;;;5.32;3.90;;;;;;;15.87;67.10;99936.00;1087537;47;20022;-84
2023/06/07 03:32:08;;;;;;;5.63;3.80;;;;;;;15.78;67.39;99939.72;1087710;47;20091;-85
2023/06/07 03:33:15;;;;;;;5.20;3.58;;;;;;;15.80;67.08;99945.75;1087942;51;20045;-85
2023/06/07 03:34:18;;;;;;;5.35;3.47;;;;;;;15.83;67.16;99942.72;1087745;46;20026;-84
2023/06/07 03:35:21;;;;;;;5.10;3.17;;;;;;;15.92;66.69;99943.53;1087672;46;20031;-85
2023/06/07 03:36:28;;;;;;;4.50;2.90;;;;;;;16.00;66.68;99943.44;1088154;47;20010;-85
2023/06/07 03:37:31;;;;;;;5.22;3.38;;;;;;;16.01;66.45;99943.25;1088072;46;20030;-86
2023/06/07 03:38:35;;;;;;;6.80;4.90;;;;;;;15.96;66.69;99945.69;1088009;54;20042;-85
2023/06/07 03:39:36;;;;;;;5.88;4.10;;;;;;;16.03;66.73;99949.31;1087687;47;20106;-85
2023/06/07 03:40:40;;;;;;;5.97;4.32;;;;;;;16.01;66.35;99940.56;1087712;46;20078;-83
2023/06/07 03:41:42;;;;;;;5.18;3.60;;;;;;;16.09;66.31;99949.59;1087546;47;20080;-85
2023/06/07 03:42:47;;;;;;;4.75;3.20;;;;;;;16.13;66.09;99957.13;1087833;47;20030;-85
2023/06/07 03:43:48;;;;;;;6.20;3.47;;;;;;;16.11;66.39;99948.38;1087814;47;20239;-85
2023/06/07 03:44:55;;;;;;;4.97;3.28;;;;;;;16.08;66.80;99948.75;1087997;47;20023;-85
2023/06/07 03:45:56;;;;;;;6.47;3.58;;;;;;;16.08;66.49;99956.00;1088251;54;20026;-86
2023/06/07 03:47:00;;;;;;;5.18;3.42;;;;;;;16.05;66.59;99957.19;1088471;54;20015;-84
2023/06/07 03:48:03;;;;;;;6.68;3.40;;;;;;;16.04;66.69;99958.22;1088226;47;20026;-85
2023/06/07 03:49:08;;;;;;;4.32;2.83;;;;;;;16.05;66.72;99951.81;1088291;47;20029;-85
2023/06/07 03:50:10;;;;;;;5.32;3.03;;;;;;;16.02;66.42;99955.72;1088251;46;20010;-86
2023/06/07 03:51:15;;;;;;;6.03;2.88;;;;;;;16.02;66.66;99953.03;1088112;46;20030;-84
2023/06/07 03:52:17;;;;;;;5.55;3.15;;;;;;;16.00;66.72;99955.06;1087747;47;20088;-85
2023/06/07 03:53:21;;;;;;;6.22;3.22;;;;;;;16.05;66.66;99949.13;1087870;54;20090;-86
2023/06/07 03:54:26;;;;;;;5.60;3.08;;;;;;;16.04;66.63;99950.13;1087873;47;20052;-85
2023/06/07 03:55:30;;;;;;;4.85;3.10;;;;;;;16.10;66.22;99946.72;1087660;47;20082;-85
2023/06/07 03:56:32;;;;;;;5.13;3.00;;;;;;;16.13;66.49;99946.34;1087807;46;20025;-84
2023/06/07 03:57:35;;;;;;;4.75;3.03;;;;;;;16.12;66.45;99946.53;1087520;47;20026;-84
2023/06/07 03:58:37;;;;;;;5.43;3.10;;;;;;;16.09;66.39;99950.44;1087235;47;20094;-84
2023/06/07 03:59:48;;;;;;;5.43;3.33;;;;;;;16.09;66.50;99952.28;1087416;46;20033;-81
2023/06/07 04:00:53;;;;;;;6.18;3.50;;;;;;;16.10;66.44;99951.25;1088915;39;20322;-86
2023/06/07 04:01:58;;;;;;;5.05;3.00;;;;;;;16.07;66.50;99947.09;1087598;47;20098;-86
2023/06/07 04:02:59;;;;;;;7.30;3.85;;;;;;;15.96;66.65;99950.22;1087839;47;20050;-84
2023/06/07 04:04:03;;;;;;;6.43;4.15;;;;;;;15.89;67.04;99947.41;1087802;47;20026;-84
2023/06/07 04:05:05;;;;;;;6.03;3.38;;;;;;;15.90;66.89;99941.00;1087801;47;20057;-84
2023/06/07 04:06:09;;;;;;;6.75;4.25;;;;;;;15.87;66.92;99946.78;1087892;47;21090;-84
2023/06/07 04:07:10;;;;;;;6.85;4.22;;;;;;;15.81;67.15;99952.84;1087813;47;20011;-83
2023/06/07 04:09:19;;;;;;;8.40;5.15;;;;;;;15.63;67.76;99951.28;1087992;54;20018;-86
2023/06/07 04:10:20;;;;;;;7.60;4.68;;;;;;;15.54;68.35;99952.38;1087881;47;20429;-85
2023/06/07 04:11:26;;;;;;;10.77;5.10;;;;;;;15.52;68.33;99957.09;1087709;46;20046;-85
2023/06/07 04:12:28;;;;;;;7.72;4.88;;;;;;;15.44;68.60;99948.06;1087898;47;20094;-84
2023/06/07 04:13:32;;;;;;;8.13;5.00;;;;;;;15.46;68.79;99942.47;1088105;47;20015;-86
2023/06/07 04:14:34;;;;;;;10.88;5.53;;;;;;;15.43;68.95;99943.69;1088088;47;20011;-84
2023/06/07 04:15:38;;;;;;;6.57;4.40;;;;;;;15.44;68.57;99952.63;1087594;47;20030;-83
2023/06/07 04:16:42;;;;;;;6.95;4.53;;;;;;;15.49;68.66;99944.00;1087846;47;20027;-85
2023/06/07 04:17:46;;;;;;;5.63;4.50;;;;;;;15.51;68.38;99947.34;1088210;47;20022;-85
2023/06/07 04:18:47;;;;;;;6.57;4.80;;;;;;;15.41;68.91;99947.59;1087667;47;20053;-84
2023/06/07 04:19:54;;;;;;;6.05;4.43;;;;;;;15.38;69.03;99947.94;1087615;47;20030;-83
2023/06/07 04:20:57;;;;;;;8.18;4.43;;;;;;;15.39;68.95;99949.63;1087980;47;20038;-85
2023/06/07 04:22:04;;;;;;;7.10;4.57;;;;;;;15.35;69.16;99945.63;1088167;47;20014;-83
2023/06/07 04:23:05;;;;;;;7.95;3.97;;;;;;;15.38;69.16;99945.25;1088321;47;20033;-85
2023/06/07 04:24:09;;;;;;;6.03;4.13;;;;;;;15.46;68.77;99944.34;1087883;47;20083;-86
2023/06/07 04:25:11;;;;;;;7.30;4.75;;;;;;;15.39;69.05;99944.22;1087772;51;20034;-84
2023/06/07 04:26:18;;;;;;;6.20;4.90;;;;;;;15.36;69.37;99942.72;1087760;46;20034;-84
2023/06/07 04:27:19;;;;;;;7.78;5.22;;;;;;;15.43;69.14;99941.00;1088026;47;20034;-83
2023/06/07 04:28:25;;;;;;;6.22;4.47;;;;;;;15.48;69.03;99942.31;1088371;47;20029;-85
2023/06/07 04:29:29;;;;;;;7.18;4.28;;;;;;;15.45;68.99;99940.81;1088309;47;20041;-83
2023/06/07 04:34:01;;;;;;;6.45;4.13;;;;;;;15.48;69.46;99950.41;1088334;54;20011;-86
2023/06/07 04:35:04;;;;;;;7.55;4.63;;;;;;;15.48;69.26;99953.09;1088252;39;20721;-83
2023/06/07 04:38:23;;;;;;;6.25;4.45;;;;;;;15.59;68.52;99955.34;1088047;47;20018;-85
2023/06/07 04:39:29;;;;;;;5.97;4.43;;;;;;;15.54;68.93;99953.19;1087670;47;21043;-84
2023/06/07 04:40:33;;;;;;;6.75;4.70;;;;;;;15.56;68.90;99950.34;1087679;47;20010;-84
2023/06/07 04:41:36;;;;;;;6.88;4.97;;;;;;;15.62;68.88;99957.69;1088090;47;20033;-85
2023/06/07 04:42:46;;;;;;;8.85;5.28;;;;;;;15.56;69.22;99951.16;1087754;46;20687;-85
2023/06/07 04:43:48;;;;;;;7.47;4.60;;;;;;;15.67;68.64;99955.31;1088090;47;20026;-85
2023/06/07 04:44:55;;;;;;;7.93;4.22;;;;;;;15.66;68.77;99950.94;1088046;47;20030;-82
2023/06/07 04:46:01;;;;;;;5.68;4.35;;;;;;;15.66;68.92;99959.03;1087871;47;20022;-86
2023/06/07 04:47:10;;;;;;;6.30;4.60;;;;;;;15.65;69.19;99954.66;1087941;47;20007;-86
2023/06/07 04:48:11;;;;;;;6.47;4.70;;;;;;;15.69;68.83;99955.94;1087711;47;20099;-84
2023/06/07 04:49:17;;;;;;;5.72;4.35;;;;;;;15.73;68.71;99956.44;1087809;54;20030;-84
2023/06/07 04:50:20;;;;;;;7.03;4.68;;;;;;;15.69;68.73;99955.94;1087756;47;20034;-85
2023/06/07 04:51:26;;;;;;;8.05;6.07;;;;;;;15.60;69.21;99957.03;1087964;47;20038;-83
2023/06/07 04:52:28;;;;;;;7.15;5.60;;;;;;;15.64;69.27;99960.19;1088047;47;20037;-83
2023/06/07 04:53:37;;;;;;;9.50;5.40;;;;;;;15.65;69.19;99960.03;1087823;54;20007;-83
2023/06/07 04:54:40;;;;;;;6.70;4.82;;;;;;;15.63;69.22;99959.38;1087934;47;20037;-84
2023/06/07 04:55:45;;;;;;;5.90;4.47;;;;;;;15.72;68.91;99957.47;1087991;54;20015;-86
2023/06/07 04:56:46;;;;;;;6.75;4.95;;;;;;;15.76;68.76;99961.47;1087984;47;20034;-85
2023/06/07 04:57:54;;;;;;;6.72;4.57;;;;;;;15.74;68.80;99958.09;1087844;47;20029;-84
2023/06/07 04:58:58;;;;;;;7.65;4.68;;;;;;;15.71;68.94;99963.88;1088064;47;20017;-85
2023/06/07 05:00:11;;;;;;;6.50;4.57;;;;;;;15.80;68.60;99962.78;1087615;47;20041;-85
2023/06/07 05:01:15;;;;;;;8.48;4.13;;;;;;;15.86;68.59;99966.66;1087930;47;20014;-84
2023/06/07 05:02:23;;;;;;;6.60;4.35;;;;;;;15.89;68.68;99966.28;1087697;47;20058;-83
2023/06/07 05:03:24;;;;;;;5.50;4.05;;;;;;;16.02;67.94;99955.72;1088071;47;20058;-84
2023/06/07 05:04:33;;;;;;;5.63;4.15;;;;;;;16.01;67.87;99958.59;1088142;47;20011;-85
2023/06/07 05:05:40;;;;;;;7.45;4.57;;;;;;;15.97;68.04;99958.09;1087996;47;20042;-85
2023/06/07 05:06:44;;;;;;;5.45;3.88;;;;;;;16.01;67.95;99956.75;1087935;47;20091;-87
2023/06/07 05:07:46;;;;;;;5.90;4.00;;;;;;;16.12;67.60;99960.84;1087801;47;20094;-81
2023/06/07 05:08:51;;;;;;;5.95;3.72;;;;;;;16.23;67.30;99956.88;1087950;47;20045;-87
2023/06/07 05:09:52;;;;;;;5.70;3.83;;;;;;;16.26;67.08;99958.38;1088114;47;20123;-85
2023/06/07 05:10:58;;;;;;;6.40;4.15;;;;;;;16.31;66.93;99958.63;1087809;46;20018;-87
2023/06/07 05:12:12;;;;;;;6.07;3.55;;;;;;;16.36;66.91;99967.03;1087808;47;20007;-86
2023/06/07 05:13:20;;;;;;;5.32;3.63;;;;;;;16.42;66.67;99960.88;1087645;47;20110;-85
2023/06/07 05:14:33;;;;;;;5.60;3.95;;;;;;;16.50;66.55;99958.09;1088898;39;20688;-84